sensor_id;sensor_type;location;lat;lon;timestamp;temperature;humidity
63094;DHT22;49183;51.380;0.098;2022-09-24T00:01:26;7.00;88.70
63094;DHT22;49183;51.380;0.098;2022-09-24T00:03:55;7.00;88.60
63094;DHT22;49183;51.380;0.098;2022-09-24T00:06:23;7.10;88.80
63094;DHT22;49183;51.380;0.098;2022-09-24T00:08:52;7.10;88.70
63094;DHT22;49183;51.380;0.098;2022-09-24T00:11:24;7.20;88.60
63094;DHT22;49183;51.380;0.098;2022-09-24T00:13:52;7.30;88.50
63094;DHT22;49183;51.380;0.098;2022-09-24T00:16:21;7.30;88.50
63094;DHT22;49183;51.380;0.098;2022-09-24T00:18:48;7.30;88.50
63094;DHT22;49183;51.380;0.098;2022-09-24T00:21:17;7.50;88.60
63094;DHT22;49183;51.380;0.098;2022-09-24T00:23:49;7.60;88.40
63094;DHT22;49183;51.380;0.098;2022-09-24T00:26:17;7.70;88.30
63094;DHT22;49183;51.380;0.098;2022-09-24T00:29:04;7.80;88.30
63094;DHT22;49183;51.380;0.098;2022-09-24T00:31:31;7.80;88.30
63094;DHT22;49183;51.380;0.098;2022-09-24T00:33:59;7.80;88.30
63094;DHT22;49183;51.380;0.098;2022-09-24T00:36:27;7.80;88.40
63094;DHT22;49183;51.380;0.098;2022-09-24T00:38:55;7.80;88.40
63094;DHT22;49183;51.380;0.098;2022-09-24T00:41:24;7.90;88.40
63094;DHT22;49183;51.380;0.098;2022-09-24T00:43:52;7.90;88.50
63094;DHT22;49183;51.380;0.098;2022-09-24T00:46:24;7.90;88.50
63094;DHT22;49183;51.380;0.098;2022-09-24T00:48:53;8.00;88.50
63094;DHT22;49183;51.380;0.098;2022-09-24T00:51:22;8.10;88.50
63094;DHT22;49183;51.380;0.098;2022-09-24T00:53:52;8.00;88.60
63094;DHT22;49183;51.380;0.098;2022-09-24T00:56:20;8.00;88.70
63094;DHT22;49183;51.380;0.098;2022-09-24T00:58:49;8.10;88.70
63094;DHT22;49183;51.380;0.098;2022-09-24T01:01:19;8.10;88.80
63094;DHT22;49183;51.380;0.098;2022-09-24T01:03:47;8.20;88.90
63094;DHT22;49183;51.380;0.098;2022-09-24T01:06:15;8.20;89.00
63094;DHT22;49183;51.380;0.098;2022-09-24T01:08:43;8.20;89.00
63094;DHT22;49183;51.380;0.098;2022-09-24T01:19:20;8.40;89.30
63094;DHT22;49183;51.380;0.098;2022-09-24T01:21:55;8.40;89.40
63094;DHT22;49183;51.380;0.098;2022-09-24T01:24:27;8.40;89.40
63094;DHT22;49183;51.380;0.098;2022-09-24T01:32:44;8.50;89.50
63094;DHT22;49183;51.380;0.098;2022-09-24T01:37:43;8.40;89.60
63094;DHT22;49183;51.380;0.098;2022-09-24T01:40:11;8.40;89.70
63094;DHT22;49183;51.380;0.098;2022-09-24T01:42:41;8.40;89.80
63094;DHT22;49183;51.380;0.098;2022-09-24T01:45:10;8.40;89.80
63094;DHT22;49183;51.380;0.098;2022-09-24T01:47:38;8.40;89.80
63094;DHT22;49183;51.380;0.098;2022-09-24T01:50:07;8.30;89.90
63094;DHT22;49183;51.380;0.098;2022-09-24T01:52:38;8.30;89.90
63094;DHT22;49183;51.380;0.098;2022-09-24T01:55:07;8.30;89.90
63094;DHT22;49183;51.380;0.098;2022-09-24T01:57:41;8.30;90.00
63094;DHT22;49183;51.380;0.098;2022-09-24T02:00:10;8.30;90.00
63094;DHT22;49183;51.380;0.098;2022-09-24T02:07:56;8.40;89.90
63094;DHT22;49183;51.380;0.098;2022-09-24T02:10:25;8.30;89.90
63094;DHT22;49183;51.380;0.098;2022-09-24T02:12:55;8.30;89.90
63094;DHT22;49183;51.380;0.098;2022-09-24T02:15:26;8.30;89.90
63094;DHT22;49183;51.380;0.098;2022-09-24T02:18:01;8.30;90.00
63094;DHT22;49183;51.380;0.098;2022-09-24T02:20:29;8.30;90.00
63094;DHT22;49183;51.380;0.098;2022-09-24T02:22:57;8.20;90.10
63094;DHT22;49183;51.380;0.098;2022-09-24T02:25:29;8.20;90.10
63094;DHT22;49183;51.380;0.098;2022-09-24T02:27:57;8.20;90.20
63094;DHT22;49183;51.380;0.098;2022-09-24T02:30:25;8.30;90.20
63094;DHT22;49183;51.380;0.098;2022-09-24T02:32:52;8.30;90.20
63094;DHT22;49183;51.380;0.098;2022-09-24T02:35:21;8.30;90.20
63094;DHT22;49183;51.380;0.098;2022-09-24T02:37:49;8.30;90.10
63094;DHT22;49183;51.380;0.098;2022-09-24T02:40:16;8.30;90.10
63094;DHT22;49183;51.380;0.098;2022-09-24T02:42:43;8.30;90.10
63094;DHT22;49183;51.380;0.098;2022-09-24T02:45:11;8.20;90.10
63094;DHT22;49183;51.380;0.098;2022-09-24T02:47:38;8.20;90.20
63094;DHT22;49183;51.380;0.098;2022-09-24T02:50:06;8.10;90.20
63094;DHT22;49183;51.380;0.098;2022-09-24T02:52:33;8.10;90.20
63094;DHT22;49183;51.380;0.098;2022-09-24T02:55:01;8.00;90.30
63094;DHT22;49183;51.380;0.098;2022-09-24T02:57:28;7.90;90.30
63094;DHT22;49183;51.380;0.098;2022-09-24T02:59:56;7.90;90.40
63094;DHT22;49183;51.380;0.098;2022-09-24T03:02:23;7.90;90.50
63094;DHT22;49183;51.380;0.098;2022-09-24T03:04:51;7.90;90.50
63094;DHT22;49183;51.380;0.098;2022-09-24T03:07:18;7.90;90.40
63094;DHT22;49183;51.380;0.098;2022-09-24T03:09:47;7.80;90.50
63094;DHT22;49183;51.380;0.098;2022-09-24T03:12:15;7.80;90.50
63094;DHT22;49183;51.380;0.098;2022-09-24T03:14:42;7.70;90.50
63094;DHT22;49183;51.380;0.098;2022-09-24T03:17:10;7.70;90.50
63094;DHT22;49183;51.380;0.098;2022-09-24T03:19:37;7.60;90.60
63094;DHT22;49183;51.380;0.098;2022-09-24T03:22:04;7.60;90.50
63094;DHT22;49183;51.380;0.098;2022-09-24T03:24:32;7.60;90.60
63094;DHT22;49183;51.380;0.098;2022-09-24T03:26:59;7.50;90.70
63094;DHT22;49183;51.380;0.098;2022-09-24T03:29:26;7.50;90.60
63094;DHT22;49183;51.380;0.098;2022-09-24T03:32:14;7.50;90.60
63094;DHT22;49183;51.380;0.098;2022-09-24T03:34:42;7.50;90.60
63094;DHT22;49183;51.380;0.098;2022-09-24T03:37:09;7.40;90.60
63094;DHT22;49183;51.380;0.098;2022-09-24T03:39:36;7.40;90.60
63094;DHT22;49183;51.380;0.098;2022-09-24T03:42:04;7.40;90.60
63094;DHT22;49183;51.380;0.098;2022-09-24T03:44:31;7.40;90.60
63094;DHT22;49183;51.380;0.098;2022-09-24T03:46:58;7.40;90.60
63094;DHT22;49183;51.380;0.098;2022-09-24T03:49:26;7.50;90.50
63094;DHT22;49183;51.380;0.098;2022-09-24T03:51:53;7.50;90.50
63094;DHT22;49183;51.380;0.098;2022-09-24T03:54:20;7.60;90.40
63094;DHT22;49183;51.380;0.098;2022-09-24T03:56:48;7.60;90.40
63094;DHT22;49183;51.380;0.098;2022-09-24T03:59:15;7.60;90.30
63094;DHT22;49183;51.380;0.098;2022-09-24T04:01:42;7.60;90.20
63094;DHT22;49183;51.380;0.098;2022-09-24T04:04:10;7.70;90.20
63094;DHT22;49183;51.380;0.098;2022-09-24T04:06:40;7.60;90.20
63094;DHT22;49183;51.380;0.098;2022-09-24T04:09:07;7.70;90.20
63094;DHT22;49183;51.380;0.098;2022-09-24T04:11:35;7.60;90.20
63094;DHT22;49183;51.380;0.098;2022-09-24T04:14:02;7.70;90.20
63094;DHT22;49183;51.380;0.098;2022-09-24T04:16:30;7.80;90.20
63094;DHT22;49183;51.380;0.098;2022-09-24T04:18:57;7.80;90.20
63094;DHT22;49183;51.380;0.098;2022-09-24T04:21:25;7.80;90.10
63094;DHT22;49183;51.380;0.098;2022-09-24T04:23:52;7.90;90.10
63094;DHT22;49183;51.380;0.098;2022-09-24T04:26:19;8.00;90.10
63094;DHT22;49183;51.380;0.098;2022-09-24T04:28:47;8.10;90.00
63094;DHT22;49183;51.380;0.098;2022-09-24T04:31:16;8.10;89.90
63094;DHT22;49183;51.380;0.098;2022-09-24T04:33:44;8.20;89.90
63094;DHT22;49183;51.380;0.098;2022-09-24T04:36:11;8.20;89.90
63094;DHT22;49183;51.380;0.098;2022-09-24T04:38:38;8.20;89.90
63094;DHT22;49183;51.380;0.098;2022-09-24T04:41:06;8.30;89.90
63094;DHT22;49183;51.380;0.098;2022-09-24T04:43:34;8.30;89.90
63094;DHT22;49183;51.380;0.098;2022-09-24T04:46:03;8.30;89.80
63094;DHT22;49183;51.380;0.098;2022-09-24T04:48:31;8.40;89.80
63094;DHT22;49183;51.380;0.098;2022-09-24T04:50:58;8.40;89.80
63094;DHT22;49183;51.380;0.098;2022-09-24T04:53:25;8.40;89.80
63094;DHT22;49183;51.380;0.098;2022-09-24T04:55:53;8.40;89.80
63094;DHT22;49183;51.380;0.098;2022-09-24T04:58:21;8.40;89.80
63094;DHT22;49183;51.380;0.098;2022-09-24T05:00:48;8.40;89.80
63094;DHT22;49183;51.380;0.098;2022-09-24T05:03:17;8.40;89.80
63094;DHT22;49183;51.380;0.098;2022-09-24T05:05:45;8.40;89.80
63094;DHT22;49183;51.380;0.098;2022-09-24T05:08:13;8.40;89.90
63094;DHT22;49183;51.380;0.098;2022-09-24T05:10:40;8.40;89.90
63094;DHT22;49183;51.380;0.098;2022-09-24T05:13:08;8.30;89.90
63094;DHT22;49183;51.380;0.098;2022-09-24T05:15:35;8.30;90.00
63094;DHT22;49183;51.380;0.098;2022-09-24T05:18:09;8.20;90.00
63094;DHT22;49183;51.380;0.098;2022-09-24T05:20:36;8.20;90.10
63094;DHT22;49183;51.380;0.098;2022-09-24T05:23:03;8.10;90.10
63094;DHT22;49183;51.380;0.098;2022-09-24T05:25:31;8.10;90.20
63094;DHT22;49183;51.380;0.098;2022-09-24T05:27:58;8.00;90.20
63094;DHT22;49183;51.380;0.098;2022-09-24T05:30:26;8.00;90.30
63094;DHT22;49183;51.380;0.098;2022-09-24T05:32:53;8.00;90.30
63094;DHT22;49183;51.380;0.098;2022-09-24T05:35:21;7.90;90.30
63094;DHT22;49183;51.380;0.098;2022-09-24T05:37:49;7.90;90.30
63094;DHT22;49183;51.380;0.098;2022-09-24T05:40:20;7.80;90.30
63094;DHT22;49183;51.380;0.098;2022-09-24T05:43:06;7.70;90.40
63094;DHT22;49183;51.380;0.098;2022-09-24T05:45:34;7.70;90.40
63094;DHT22;49183;51.380;0.098;2022-09-24T05:48:01;7.60;90.40
63094;DHT22;49183;51.380;0.098;2022-09-24T05:50:29;7.60;90.50
63094;DHT22;49183;51.380;0.098;2022-09-24T05:52:57;7.50;90.50
63094;DHT22;49183;51.380;0.098;2022-09-24T05:55:24;7.40;90.50
63094;DHT22;49183;51.380;0.098;2022-09-24T05:58:04;7.40;90.50
63094;DHT22;49183;51.380;0.098;2022-09-24T06:00:33;7.30;90.60
63094;DHT22;49183;51.380;0.098;2022-09-24T06:03:05;7.20;90.60
63094;DHT22;49183;51.380;0.098;2022-09-24T06:05:34;7.20;90.70
63094;DHT22;49183;51.380;0.098;2022-09-24T06:08:02;7.10;90.70
63094;DHT22;49183;51.380;0.098;2022-09-24T06:10:29;7.00;90.70
63094;DHT22;49183;51.380;0.098;2022-09-24T06:12:57;6.90;90.70
63094;DHT22;49183;51.380;0.098;2022-09-24T06:15:25;6.90;90.80
63094;DHT22;49183;51.380;0.098;2022-09-24T06:17:53;6.80;90.80
63094;DHT22;49183;51.380;0.098;2022-09-24T06:20:21;6.80;90.80
63094;DHT22;49183;51.380;0.098;2022-09-24T06:22:49;6.80;90.80
63094;DHT22;49183;51.380;0.098;2022-09-24T06:25:17;6.70;90.80
63094;DHT22;49183;51.380;0.098;2022-09-24T06:31:13;6.60;91.10
63094;DHT22;49183;51.380;0.098;2022-09-24T06:33:41;6.60;91.00
63094;DHT22;49183;51.380;0.098;2022-09-24T06:36:08;6.60;91.00
63094;DHT22;49183;51.380;0.098;2022-09-24T06:38:36;6.60;91.00
63094;DHT22;49183;51.380;0.098;2022-09-24T06:41:06;6.60;90.80
63094;DHT22;49183;51.380;0.098;2022-09-24T06:43:34;6.50;90.80
63094;DHT22;49183;51.380;0.098;2022-09-24T06:46:02;6.50;91.00
63094;DHT22;49183;51.380;0.098;2022-09-24T06:48:30;6.50;91.00
63094;DHT22;49183;51.380;0.098;2022-09-24T06:50:57;6.50;91.10
63094;DHT22;49183;51.380;0.098;2022-09-24T06:53:25;6.60;91.20
63094;DHT22;49183;51.380;0.098;2022-09-24T06:55:54;6.70;91.10
63094;DHT22;49183;51.380;0.098;2022-09-24T06:58:22;6.80;91.00
63094;DHT22;49183;51.380;0.098;2022-09-24T07:00:58;6.80;90.90
63094;DHT22;49183;51.380;0.098;2022-09-24T07:03:26;6.90;90.80
63094;DHT22;49183;51.380;0.098;2022-09-24T07:05:54;6.90;90.80
63094;DHT22;49183;51.380;0.098;2022-09-24T07:08:22;7.00;90.80
63094;DHT22;49183;51.380;0.098;2022-09-24T07:10:49;7.20;90.80
63094;DHT22;49183;51.380;0.098;2022-09-24T07:13:18;7.40;90.80
63094;DHT22;49183;51.380;0.098;2022-09-24T07:15:48;7.80;90.60
63094;DHT22;49183;51.380;0.098;2022-09-24T07:18:16;8.00;90.30
63094;DHT22;49183;51.380;0.098;2022-09-24T07:20:49;8.30;90.10
63094;DHT22;49183;51.380;0.098;2022-09-24T07:23:17;8.60;89.90
63094;DHT22;49183;51.380;0.098;2022-09-24T07:25:44;8.80;89.70
63094;DHT22;49183;51.380;0.098;2022-09-24T07:28:13;9.20;89.50
63094;DHT22;49183;51.380;0.098;2022-09-24T07:30:41;9.40;89.20
63094;DHT22;49183;51.380;0.098;2022-09-24T07:33:09;9.60;88.90
63094;DHT22;49183;51.380;0.098;2022-09-24T07:35:37;9.80;88.60
63094;DHT22;49183;51.380;0.098;2022-09-24T07:38:06;9.90;88.40
63094;DHT22;49183;51.380;0.098;2022-09-24T07:40:34;10.20;88.20
63094;DHT22;49183;51.380;0.098;2022-09-24T07:43:01;10.40;87.90
63094;DHT22;49183;51.380;0.098;2022-09-24T07:45:29;10.60;87.60
63094;DHT22;49183;51.380;0.098;2022-09-24T07:48:00;10.80;87.10
63094;DHT22;49183;51.380;0.098;2022-09-24T07:50:28;10.90;86.80
63094;DHT22;49183;51.380;0.098;2022-09-24T07:52:56;11.10;86.40
63094;DHT22;49183;51.380;0.098;2022-09-24T07:55:24;11.30;86.10
63094;DHT22;49183;51.380;0.098;2022-09-24T07:57:53;11.60;85.60
63094;DHT22;49183;51.380;0.098;2022-09-24T08:00:21;11.80;84.80
63094;DHT22;49183;51.380;0.098;2022-09-24T08:02:49;11.90;84.10
63094;DHT22;49183;51.380;0.098;2022-09-24T08:05:18;12.00;83.80
63094;DHT22;49183;51.380;0.098;2022-09-24T08:07:52;12.30;83.40
63094;DHT22;49183;51.380;0.098;2022-09-24T08:10:20;12.40;82.60
63094;DHT22;49183;51.380;0.098;2022-09-24T08:12:47;12.40;82.30
63094;DHT22;49183;51.380;0.098;2022-09-24T08:15:15;12.50;81.90
63094;DHT22;49183;51.380;0.098;2022-09-24T08:17:42;12.60;81.50
63094;DHT22;49183;51.380;0.098;2022-09-24T08:20:10;12.70;81.10
63094;DHT22;49183;51.380;0.098;2022-09-24T08:22:38;12.70;80.40
63094;DHT22;49183;51.380;0.098;2022-09-24T08:25:06;12.70;80.10
63094;DHT22;49183;51.380;0.098;2022-09-24T08:27:33;12.80;79.60
63094;DHT22;49183;51.380;0.098;2022-09-24T08:30:03;12.80;79.20
63094;DHT22;49183;51.380;0.098;2022-09-24T08:32:31;12.90;79.30
63094;DHT22;49183;51.380;0.098;2022-09-24T08:34:59;13.10;79.00
63094;DHT22;49183;51.380;0.098;2022-09-24T08:37:27;13.20;78.70
63094;DHT22;49183;51.380;0.098;2022-09-24T08:39:55;13.30;78.40
63094;DHT22;49183;51.380;0.098;2022-09-24T08:45:02;13.60;77.80
63094;DHT22;49183;51.380;0.098;2022-09-24T08:50:26;13.80;75.90
63094;DHT22;49183;51.380;0.098;2022-09-24T08:52:57;13.80;75.70
63094;DHT22;49183;51.380;0.098;2022-09-24T08:55:36;14.00;75.30
63094;DHT22;49183;51.380;0.098;2022-09-24T08:58:21;14.10;74.90
63094;DHT22;49183;51.380;0.098;2022-09-24T09:00:59;14.10;72.00
63094;DHT22;49183;51.380;0.098;2022-09-24T09:08:48;13.90;68.50
63094;DHT22;49183;51.380;0.098;2022-09-24T09:11:33;13.80;70.20
63094;DHT22;49183;51.380;0.098;2022-09-24T09:16:33;13.80;71.50
63094;DHT22;49183;51.380;0.098;2022-09-24T09:19:03;13.90;70.40
63094;DHT22;49183;51.380;0.098;2022-09-24T09:21:36;14.00;70.00
63094;DHT22;49183;51.380;0.098;2022-09-24T09:24:17;14.10;70.20
63094;DHT22;49183;51.380;0.098;2022-09-24T09:26:45;14.20;70.40
63094;DHT22;49183;51.380;0.098;2022-09-24T09:29:14;14.40;70.30
63094;DHT22;49183;51.380;0.098;2022-09-24T09:32:04;14.50;69.80
63094;DHT22;49183;51.380;0.098;2022-09-24T09:40:06;14.70;68.50
63094;DHT22;49183;51.380;0.098;2022-09-24T09:42:37;14.80;67.30
63094;DHT22;49183;51.380;0.098;2022-09-24T09:45:23;14.80;65.80
63094;DHT22;49183;51.380;0.098;2022-09-24T09:47:55;14.80;65.80
63094;DHT22;49183;51.380;0.098;2022-09-24T09:56:05;15.10;63.40
63094;DHT22;49183;51.380;0.098;2022-09-24T09:58:35;14.90;64.70
63094;DHT22;49183;51.380;0.098;2022-09-24T10:01:06;14.90;65.10
63094;DHT22;49183;51.380;0.098;2022-09-24T10:06:23;15.20;65.30
63094;DHT22;49183;51.380;0.098;2022-09-24T10:08:51;15.30;64.90
63094;DHT22;49183;51.380;0.098;2022-09-24T10:11:18;15.40;65.00
63094;DHT22;49183;51.380;0.098;2022-09-24T10:14:00;15.50;65.00
63094;DHT22;49183;51.380;0.098;2022-09-24T10:16:27;15.60;64.80
63094;DHT22;49183;51.380;0.098;2022-09-24T10:18:55;15.80;64.90
63094;DHT22;49183;51.380;0.098;2022-09-24T10:21:29;15.90;63.30
63094;DHT22;49183;51.380;0.098;2022-09-24T10:23:59;15.80;63.20
63094;DHT22;49183;51.380;0.098;2022-09-24T10:26:34;15.90;64.00
63094;DHT22;49183;51.380;0.098;2022-09-24T10:32:06;15.90;63.10
63094;DHT22;49183;51.380;0.098;2022-09-24T10:34:39;16.10;62.50
63094;DHT22;49183;51.380;0.098;2022-09-24T10:37:13;16.10;63.00
63094;DHT22;49183;51.380;0.098;2022-09-24T10:39:41;16.20;63.30
63094;DHT22;49183;51.380;0.098;2022-09-24T10:42:22;16.30;63.40
63094;DHT22;49183;51.380;0.098;2022-09-24T10:44:50;16.40;63.30
63094;DHT22;49183;51.380;0.098;2022-09-24T10:47:21;16.60;62.60
63094;DHT22;49183;51.380;0.098;2022-09-24T10:52:59;16.30;60.80
63094;DHT22;49183;51.380;0.098;2022-09-24T11:01:16;16.00;62.70
63094;DHT22;49183;51.380;0.098;2022-09-24T11:11:41;15.90;63.30
63094;DHT22;49183;51.380;0.098;2022-09-24T11:14:30;15.90;63.70
63094;DHT22;49183;51.380;0.098;2022-09-24T11:30:09;16.70;62.90
63094;DHT22;49183;51.380;0.098;2022-09-24T11:40:25;17.00;63.40
63094;DHT22;49183;51.380;0.098;2022-09-24T11:43:19;17.00;63.20
63094;DHT22;49183;51.380;0.098;2022-09-24T11:45:49;17.00;62.70
63094;DHT22;49183;51.380;0.098;2022-09-24T11:56:17;17.40;63.50
63094;DHT22;49183;51.380;0.098;2022-09-24T12:01:36;17.40;60.80
63094;DHT22;49183;51.380;0.098;2022-09-24T12:04:07;17.10;61.50
63094;DHT22;49183;51.380;0.098;2022-09-24T12:06:38;16.80;62.20
63094;DHT22;49183;51.380;0.098;2022-09-24T12:09:29;16.60;62.60
63094;DHT22;49183;51.380;0.098;2022-09-24T12:12:17;16.40;63.30
63094;DHT22;49183;51.380;0.098;2022-09-24T12:14:52;16.30;64.20
63094;DHT22;49183;51.380;0.098;2022-09-24T12:18:07;16.10;64.60
63094;DHT22;49183;51.380;0.098;2022-09-24T12:20:13;16.00;65.20
63094;DHT22;49183;51.380;0.098;2022-09-24T12:22:48;15.90;65.50
63094;DHT22;49183;51.380;0.098;2022-09-24T12:25:16;15.80;65.50
63094;DHT22;49183;51.380;0.098;2022-09-24T12:27:44;15.80;66.60
63094;DHT22;49183;51.380;0.098;2022-09-24T12:30:27;15.70;67.00
63094;DHT22;49183;51.380;0.098;2022-09-24T12:36:08;15.80;67.00
63094;DHT22;49183;51.380;0.098;2022-09-24T12:38:42;15.70;67.30
63094;DHT22;49183;51.380;0.098;2022-09-24T12:44:41;15.70;67.60
63094;DHT22;49183;51.380;0.098;2022-09-24T12:52:35;16.30;67.30
63094;DHT22;49183;51.380;0.098;2022-09-24T12:54:41;16.60;66.30
63094;DHT22;49183;51.380;0.098;2022-09-24T12:59:53;17.00;64.50
63094;DHT22;49183;51.380;0.098;2022-09-24T13:02:21;17.00;63.80
63094;DHT22;49183;51.380;0.098;2022-09-24T13:12:42;17.20;61.10
63094;DHT22;49183;51.380;0.098;2022-09-24T13:17:44;16.90;56.90
63094;DHT22;49183;51.380;0.098;2022-09-24T13:20:18;16.50;58.30
63094;DHT22;49183;51.380;0.098;2022-09-24T13:22:59;16.30;59.90
63094;DHT22;49183;51.380;0.098;2022-09-24T13:25:52;16.30;61.30
63094;DHT22;49183;51.380;0.098;2022-09-24T13:28:27;16.20;61.50
63094;DHT22;49183;51.380;0.098;2022-09-24T13:31:09;16.20;60.90
63094;DHT22;49183;51.380;0.098;2022-09-24T13:33:43;16.20;60.80
63094;DHT22;49183;51.380;0.098;2022-09-24T13:36:12;16.10;59.70
63094;DHT22;49183;51.380;0.098;2022-09-24T13:41:25;15.90;60.30
63094;DHT22;49183;51.380;0.098;2022-09-24T13:43:55;15.90;61.00
63094;DHT22;49183;51.380;0.098;2022-09-24T13:46:24;16.10;62.00
63094;DHT22;49183;51.380;0.098;2022-09-24T13:49:00;16.40;60.80
63094;DHT22;49183;51.380;0.098;2022-09-24T13:51:30;16.60;61.00
63094;DHT22;49183;51.380;0.098;2022-09-24T13:54:02;16.90;61.50
63094;DHT22;49183;51.380;0.098;2022-09-24T13:56:31;17.20;60.70
63094;DHT22;49183;51.380;0.098;2022-09-24T13:59:03;17.40;59.20
63094;DHT22;49183;51.380;0.098;2022-09-24T14:01:37;17.60;57.30
63094;DHT22;49183;51.380;0.098;2022-09-24T14:06:43;17.80;58.00
63094;DHT22;49183;51.380;0.098;2022-09-24T14:11:48;17.90;55.50
63094;DHT22;49183;51.380;0.098;2022-09-24T14:14:21;17.80;56.60
63094;DHT22;49183;51.380;0.098;2022-09-24T14:16:51;17.70;57.40
63094;DHT22;49183;51.380;0.098;2022-09-24T14:19:22;17.70;57.40
63094;DHT22;49183;51.380;0.098;2022-09-24T14:21:53;17.60;56.30
63094;DHT22;49183;51.380;0.098;2022-09-24T14:24:27;17.40;55.90
63094;DHT22;49183;51.380;0.098;2022-09-24T14:27:06;17.00;56.20
63094;DHT22;49183;51.380;0.098;2022-09-24T14:29:39;16.70;57.00
63094;DHT22;49183;51.380;0.098;2022-09-24T14:32:33;16.40;58.10
63094;DHT22;49183;51.380;0.098;2022-09-24T14:35:04;16.10;58.10
63094;DHT22;49183;51.380;0.098;2022-09-24T14:37:33;15.90;59.00
63094;DHT22;49183;51.380;0.098;2022-09-24T14:40:06;15.80;58.70
63094;DHT22;49183;51.380;0.098;2022-09-24T14:42:42;15.60;58.70
63094;DHT22;49183;51.380;0.098;2022-09-24T14:45:30;15.50;59.90
63094;DHT22;49183;51.380;0.098;2022-09-24T14:48:04;15.30;60.20
63094;DHT22;49183;51.380;0.098;2022-09-24T14:50:36;15.20;61.20
63094;DHT22;49183;51.380;0.098;2022-09-24T14:53:11;15.10;61.60
63094;DHT22;49183;51.380;0.098;2022-09-24T14:55:40;15.10;62.50
63094;DHT22;49183;51.380;0.098;2022-09-24T15:00:54;15.10;63.40
63094;DHT22;49183;51.380;0.098;2022-09-24T15:06:04;15.10;62.50
63094;DHT22;49183;51.380;0.098;2022-09-24T15:08:32;15.10;61.70
63094;DHT22;49183;51.380;0.098;2022-09-24T15:11:00;15.10;61.40
63094;DHT22;49183;51.380;0.098;2022-09-24T15:13:30;15.10;61.50
63094;DHT22;49183;51.380;0.098;2022-09-24T15:18:29;15.10;61.30
63094;DHT22;49183;51.380;0.098;2022-09-24T15:20:56;15.10;61.20
63094;DHT22;49183;51.380;0.098;2022-09-24T15:23:25;15.10;60.60
63094;DHT22;49183;51.380;0.098;2022-09-24T15:25:53;15.10;60.40
63094;DHT22;49183;51.380;0.098;2022-09-24T15:28:20;15.10;60.50
63094;DHT22;49183;51.380;0.098;2022-09-24T15:30:53;15.20;60.90
63094;DHT22;49183;51.380;0.098;2022-09-24T15:33:21;15.10;60.20
63094;DHT22;49183;51.380;0.098;2022-09-24T15:35:48;15.10;59.70
63094;DHT22;49183;51.380;0.098;2022-09-24T15:38:16;15.10;59.90
63094;DHT22;49183;51.380;0.098;2022-09-24T15:40:44;15.10;60.60
63094;DHT22;49183;51.380;0.098;2022-09-24T15:43:20;15.10;60.90
63094;DHT22;49183;51.380;0.098;2022-09-24T15:45:48;15.10;61.00
63094;DHT22;49183;51.380;0.098;2022-09-24T15:48:16;15.10;61.60
63094;DHT22;49183;51.380;0.098;2022-09-24T15:50:44;15.00;61.70
63094;DHT22;49183;51.380;0.098;2022-09-24T15:53:16;15.10;61.60
63094;DHT22;49183;51.380;0.098;2022-09-24T15:55:44;15.00;61.30
63094;DHT22;49183;51.380;0.098;2022-09-24T15:58:14;15.00;61.50
63094;DHT22;49183;51.380;0.098;2022-09-24T16:00:46;14.90;61.50
63094;DHT22;49183;51.380;0.098;2022-09-24T16:05:45;14.80;61.20
63094;DHT22;49183;51.380;0.098;2022-09-24T16:08:13;14.70;61.10
63094;DHT22;49183;51.380;0.098;2022-09-24T16:10:41;14.70;60.80
63094;DHT22;49183;51.380;0.098;2022-09-24T16:13:10;14.60;61.70
63094;DHT22;49183;51.380;0.098;2022-09-24T16:15:38;14.60;61.90
63094;DHT22;49183;51.380;0.098;2022-09-24T16:18:06;14.60;61.50
63094;DHT22;49183;51.380;0.098;2022-09-24T16:20:36;14.60;61.90
63094;DHT22;49183;51.380;0.098;2022-09-24T16:23:04;14.60;61.70
63094;DHT22;49183;51.380;0.098;2022-09-24T16:25:31;14.60;62.10
63094;DHT22;49183;51.380;0.098;2022-09-24T16:27:59;14.50;61.90
63094;DHT22;49183;51.380;0.098;2022-09-24T16:30:26;14.50;62.10
63094;DHT22;49183;51.380;0.098;2022-09-24T16:32:54;14.50;62.60
63094;DHT22;49183;51.380;0.098;2022-09-24T16:35:21;14.40;62.50
63094;DHT22;49183;51.380;0.098;2022-09-24T16:37:48;14.40;62.50
63094;DHT22;49183;51.380;0.098;2022-09-24T16:40:16;14.40;62.80
63094;DHT22;49183;51.380;0.098;2022-09-24T16:42:43;14.30;62.60
63094;DHT22;49183;51.380;0.098;2022-09-24T16:45:11;14.30;63.00
63094;DHT22;49183;51.380;0.098;2022-09-24T16:47:38;14.30;63.00
63094;DHT22;49183;51.380;0.098;2022-09-24T16:50:06;14.20;63.30
63094;DHT22;49183;51.380;0.098;2022-09-24T16:52:33;14.30;63.40
63094;DHT22;49183;51.380;0.098;2022-09-24T16:55:01;14.20;63.50
63094;DHT22;49183;51.380;0.098;2022-09-24T16:57:28;14.20;63.60
63094;DHT22;49183;51.380;0.098;2022-09-24T16:59:55;14.10;63.60
63094;DHT22;49183;51.380;0.098;2022-09-24T17:02:23;14.10;62.90
63094;DHT22;49183;51.380;0.098;2022-09-24T17:04:50;14.00;62.90
63094;DHT22;49183;51.380;0.098;2022-09-24T17:07:20;13.90;62.40
63094;DHT22;49183;51.380;0.098;2022-09-24T17:09:47;13.80;61.90
63094;DHT22;49183;51.380;0.098;2022-09-24T17:12:33;13.70;62.20
63094;DHT22;49183;51.380;0.098;2022-09-24T17:15:01;13.60;62.60
63094;DHT22;49183;51.380;0.098;2022-09-24T17:17:28;13.60;62.50
63094;DHT22;49183;51.380;0.098;2022-09-24T17:19:57;13.50;62.40
63094;DHT22;49183;51.380;0.098;2022-09-24T17:22:24;13.40;62.70
63094;DHT22;49183;51.380;0.098;2022-09-24T17:24:52;13.30;62.50
63094;DHT22;49183;51.380;0.098;2022-09-24T17:27:22;13.30;62.50
63094;DHT22;49183;51.380;0.098;2022-09-24T17:29:49;13.30;62.20
63094;DHT22;49183;51.380;0.098;2022-09-24T17:32:17;13.30;62.90
63094;DHT22;49183;51.380;0.098;2022-09-24T17:34:44;13.20;63.30
63094;DHT22;49183;51.380;0.098;2022-09-24T17:37:12;13.10;62.90
63094;DHT22;49183;51.380;0.098;2022-09-24T17:39:39;13.00;63.00
63094;DHT22;49183;51.380;0.098;2022-09-24T17:42:07;13.00;63.20
63094;DHT22;49183;51.380;0.098;2022-09-24T17:44:34;12.90;63.50
63094;DHT22;49183;51.380;0.098;2022-09-24T17:47:02;12.80;63.60
63094;DHT22;49183;51.380;0.098;2022-09-24T17:49:29;12.80;63.70
63094;DHT22;49183;51.380;0.098;2022-09-24T17:51:57;12.80;64.00
63094;DHT22;49183;51.380;0.098;2022-09-24T17:54:27;12.70;64.30
63094;DHT22;49183;51.380;0.098;2022-09-24T17:56:55;12.60;64.60
63094;DHT22;49183;51.380;0.098;2022-09-24T17:59:22;12.50;64.80
63094;DHT22;49183;51.380;0.098;2022-09-24T18:01:53;12.40;65.20
63094;DHT22;49183;51.380;0.098;2022-09-24T18:04:20;12.30;65.50
63094;DHT22;49183;51.380;0.098;2022-09-24T18:06:48;12.20;65.90
63094;DHT22;49183;51.380;0.098;2022-09-24T18:09:16;12.00;66.20
63094;DHT22;49183;51.380;0.098;2022-09-24T18:11:45;11.90;66.60
63094;DHT22;49183;51.380;0.098;2022-09-24T18:14:14;11.80;66.90
63094;DHT22;49183;51.380;0.098;2022-09-24T18:16:43;11.70;67.10
63094;DHT22;49183;51.380;0.098;2022-09-24T18:19:11;11.60;67.30
63094;DHT22;49183;51.380;0.098;2022-09-24T18:21:40;11.50;67.50